Indianapolis Intl Information

FAA: IND - ICAO: KIND

Indianapolis Intl (Airport) Location

State Indiana
County Marion
City Indianapolis
Indianapolis Intl (Airport) is 7 miles southwest of Indianapolis, IN.
Latitude 39-43-02.3000N
Longitude 086-17-40.7000W
Elevation 796ft

Indianapolis Intl METARs

METAR KIND 191154Z 00000KT 1/16SM R05L/0800V1000FT FG VV002 17/16 A2978 RMK AO2 TWR VIS 1/2 SLP083 70047 T01670161 10167 20139 53007
Altimeter 29.78"
Temperature 16.7°C (62.1°F)
Wind 0° at 0KT
Clouds at 0ft
Visibility 0.06mi
Time observed: 2022-05-19T11:54:00Z

Indianapolis Intl (Airport) Details

Status Operational
Activation April 1940
Ownership Public
Usage Public
Chart ST LOUIS
ATC on-site Yes
Beacon schedule sunset-sunrise
Beacon color clear green

Indianapolis Intl (Airport) Contacts

Owner INDIANAPOLIS AIRPORT AUTH
Owner address 7800 COL. H. WEIR COOK MEMORIAL DR., INDIANAPOLIS, IN 46241
Owner phone 317-487-9594
Manager REGE HALL
Manager address 450 S. MERIDIAN ST. NB0407, INDIANAPOLIS, IN 46225-0420
Manager phone (317) 250-4767

Indianapolis Intl Radio Frequencies

Indianapolis Intl (Airport) Radio Frequencies

UNICOM 122.95
Common traffic advisory frequency (CTAF) N/A